Time;durP1;ratioP1;P1;durP2;ratioP2;P2;SDS_P1;SDS_P2;PMS_P1;PMS_P2;Temp;Humidity;BMP_temperature;BMP_pressure;BME280_temperature;BME280_humidity;BME280_pressure;Samples;Min_cycle;Max_cycle;Signal;HPM_P1;HPM_P2
2023/01/12 00:01:37;;;;;;;;;;;23.50;72.90;;;;;;6307175;22;19910;-71
2023/01/12 00:04:03;;;;;;;;;;;23.50;73.10;;;;;;6307385;22;19906;-71
2023/01/12 00:06:31;;;;;;;;;;;23.50;73.20;;;;;;6306559;22;19910;-71
2023/01/12 00:08:57;;;;;;;;;;;23.50;73.90;;;;;;6306990;22;20238;-71
2023/01/12 00:11:24;;;;;;;;;;;23.50;75.30;;;;;;6307586;22;19907;-71
2023/01/12 00:13:51;;;;;;;;;;;23.50;74.60;;;;;;6306969;22;19907;-71
2023/01/12 00:19:14;;;;;;;;;;;23.50;76.00;;;;;;6306795;22;20389;-71
2023/01/12 00:24:27;;;;;;;;;;;23.50;75.00;;;;;;6307318;22;20341;-71
2023/01/12 00:26:53;;;;;;;;;;;23.50;74.80;;;;;;6307172;22;19910;-71
2023/01/12 00:29:20;;;;;;;;;;;23.50;75.40;;;;;;6279977;22;19903;-71
2023/01/12 00:31:47;;;;;;;;;;;23.50;75.90;;;;;;6306841;22;19903;-71
2023/01/12 00:34:13;;;;;;;;;;;23.50;76.40;;;;;;6306798;22;19903;-71
2023/01/12 00:36:40;;;;;;;;;;;23.50;76.10;;;;;;6280305;22;19913;-70
2023/01/12 00:39:07;;;;;;;;;;;23.60;74.60;;;;;;6307242;22;20202;-71
2023/01/12 00:47:08;;;;;;;;;;;23.50;74.20;;;;;;6306648;22;19910;-70
2023/01/12 00:49:35;;;;;;;;;;;23.60;74.60;;;;;;6306710;22;19903;-71
2023/01/12 00:52:02;;;;;;;;;;;23.60;75.10;;;;;;6306487;22;20334;-70
2023/01/12 00:54:29;;;;;;;;;;;23.60;75.70;;;;;;6306507;22;20025;-70
2023/01/12 00:56:56;;;;;;;;;;;23.70;75.40;;;;;;6306341;22;19965;-70
2023/01/12 00:59:22;;;;;;;;;;;23.70;74.20;;;;;;6306576;22;19910;-71
2023/01/12 01:01:49;;;;;;;;;;;23.70;74.70;;;;;;6306507;22;19953;-71
2023/01/12 01:04:16;;;;;;;;;;;23.80;74.80;;;;;;6306478;22;20321;-71
2023/01/12 01:06:43;;;;;;;;;;;23.80;74.70;;;;;;6306689;22;20238;-70
2023/01/12 01:09:09;;;;;;;;;;;23.80;74.30;;;;;;6306568;22;19911;-70
2023/01/12 01:11:36;;;;;;;;;;;23.80;73.70;;;;;;6306562;22;19910;-70
2023/01/12 01:14:03;;;;;;;;;;;23.80;73.80;;;;;;6306670;22;19903;-70
2023/01/12 01:16:29;;;;;;;;;;;23.80;74.30;;;;;;6306243;22;20258;-70
2023/01/12 01:18:56;;;;;;;;;;;23.90;73.90;;;;;;6306233;22;20042;-70
2023/01/12 01:21:23;;;;;;;;;;;24.00;73.00;;;;;;6306564;22;20322;-71
2023/01/12 01:23:50;;;;;;;;;;;23.90;72.10;;;;;;6306521;22;19911;-71
2023/01/12 01:26:17;;;;;;;;;;;23.90;73.10;;;;;;6306505;22;19903;-71
2023/01/12 01:28:44;;;;;;;;;;;24.00;72.30;;;;;;6306423;22;20314;-71
2023/01/12 01:31:12;;;;;;;;;;;24.10;72.50;;;;;;6306499;22;19909;-71
2023/01/12 01:33:38;;;;;;;;;;;24.00;72.60;;;;;;6279389;22;19938;-71
2023/01/12 01:36:05;;;;;;;;;;;24.10;72.70;;;;;;6306257;22;19907;-71
2023/01/12 01:38:32;;;;;;;;;;;24.10;73.30;;;;;;6306396;22;19903;-71
2023/01/12 01:40:59;;;;;;;;;;;24.20;74.10;;;;;;6306402;22;19914;-70
2023/01/12 01:43:26;;;;;;;;;;;24.30;72.10;;;;;;6306510;22;19903;-71
2023/01/12 01:46:09;;;;;;;;;;;24.40;71.60;;;;;;6306377;22;19903;-70
2023/01/12 01:48:36;;;;;;;;;;;24.50;72.30;;;;;;6307008;22;20234;-71
2023/01/12 01:51:04;;;;;;;;;;;24.70;72.50;;;;;;6306398;22;19906;-71
2023/01/12 01:53:31;;;;;;;;;;;24.80;70.70;;;;;;6278977;22;19907;-71
2023/01/12 01:56:02;;;;;;;;;;;24.70;70.20;;;;;;6306467;22;19910;-71
2023/01/12 01:58:33;;;;;;;;;;;24.60;69.20;;;;;;6278986;22;19915;-70
2023/01/12 02:01:00;;;;;;;;;;;24.70;71.20;;;;;;6306539;22;19936;-71
2023/01/12 02:03:27;;;;;;;;;;;24.70;71.40;;;;;;6306238;22;19907;-71
2023/01/12 02:05:53;;;;;;;;;;;24.80;70.40;;;;;;6279652;22;19910;-71
2023/01/12 02:08:26;;;;;;;;;;;24.70;69.40;;;;;;6279037;22;19907;-71
2023/01/12 02:10:53;;;;;;;;;;;24.60;69.70;;;;;;6281033;22;19926;-70
2023/01/12 02:16:20;;;;;;;;;;;24.70;68.80;;;;;;6308662;22;19910;-71
2023/01/12 02:19:05;;;;;;;;;;;24.70;69.00;;;;;;6283204;22;19902;-71
2023/01/12 02:21:37;;;;;;;;;;;24.70;68.70;;;;;;6308515;22;20371;-71
2023/01/12 02:24:07;;;;;;;;;;;24.70;68.80;;;;;;6308087;22;19903;-71
2023/01/12 02:26:52;;;;;;;;;;;24.80;68.70;;;;;;6308602;22;19903;-71
2023/01/12 02:29:30;;;;;;;;;;;24.70;67.00;;;;;;6308564;22;19915;-71
2023/01/12 02:31:57;;;;;;;;;;;24.80;68.00;;;;;;6307607;22;19945;-71
2023/01/12 02:34:24;;;;;;;;;;;24.80;67.70;;;;;;6308236;22;19903;-71
2023/01/12 02:36:53;;;;;;;;;;;24.80;68.30;;;;;;6308242;22;19902;-71
2023/01/12 02:39:21;;;;;;;;;;;24.90;68.20;;;;;;6280913;22;19922;-71
2023/01/12 02:44:42;;;;;;;;;;;25.00;68.50;;;;;;6308094;22;19910;-71
2023/01/12 02:47:10;;;;;;;;;;;24.90;67.50;;;;;;6280814;22;19914;-70
2023/01/12 02:49:38;;;;;;;;;;;24.90;68.70;;;;;;6280949;22;20389;-71
2023/01/12 02:52:07;;;;;;;;;;;25.00;69.60;;;;;;6280850;22;20307;-71
2023/01/12 02:54:33;;;;;;;;;;;25.00;70.00;;;;;;6280661;22;19903;-73
2023/01/12 02:57:02;;;;;;;;;;;25.00;70.00;;;;;;6280490;22;19918;-71
2023/01/12 02:59:33;;;;;;;;;;;25.00;68.10;;;;;;6280608;22;19954;-70
2023/01/12 03:02:04;;;;;;;;;;;25.00;67.90;;;;;;6280272;22;20020;-71
2023/01/12 03:04:31;;;;;;;;;;;25.00;69.30;;;;;;6281083;22;20326;-70
2023/01/12 03:06:57;;;;;;;;;;;25.00;67.10;;;;;;6281018;22;19903;-71
2023/01/12 03:09:25;;;;;;;;;;;25.00;68.00;;;;;;6308077;22;19903;-71
2023/01/12 03:11:52;;;;;;;;;;;25.00;66.50;;;;;;6280601;22;19938;-71
2023/01/12 03:14:19;;;;;;;;;;;25.00;67.10;;;;;;6307930;22;19903;-71
2023/01/12 03:16:45;;;;;;;;;;;25.00;68.30;;;;;;6280497;22;19903;-70
2023/01/12 03:19:21;;;;;;;;;;;25.10;67.90;;;;;;6307628;22;20009;-70
2023/01/12 03:21:48;;;;;;;;;;;25.10;67.60;;;;;;6280627;22;20294;-70
2023/01/12 03:24:15;;;;;;;;;;;25.10;67.60;;;;;;6308547;22;19907;-71
2023/01/12 03:26:44;;;;;;;;;;;25.10;67.80;;;;;;6280373;22;19907;-72
2023/01/12 03:29:32;;;;;;;;;;;25.10;67.80;;;;;;6280696;22;19948;-70
2023/01/12 03:31:58;;;;;;;;;;;25.10;68.30;;;;;;6280604;22;19942;-71
2023/01/12 03:34:25;;;;;;;;;;;25.10;69.20;;;;;;6280140;22;19910;-70
2023/01/12 03:37:11;;;;;;;;;;;25.10;68.20;;;;;;6307160;22;19910;-71
2023/01/12 03:40:01;;;;;;;;;;;25.10;68.00;;;;;;6307355;22;20731;-71
2023/01/12 03:42:29;;;;;;;;;;;25.00;68.30;;;;;;6287314;22;20230;-70
2023/01/12 03:45:09;;;;;;;;;;;25.00;68.50;;;;;;6307402;22;19910;-70
2023/01/12 03:47:36;;;;;;;;;;;25.00;69.00;;;;;;6280213;22;19910;-70
2023/01/12 03:50:06;;;;;;;;;;;25.00;69.60;;;;;;6280145;22;19981;-72
2023/01/12 03:52:34;;;;;;;;;;;25.00;69.80;;;;;;6307378;22;19907;-70
2023/01/12 03:55:00;;;;;;;;;;;25.00;70.00;;;;;;6280507;22;19907;-70
2023/01/12 03:57:27;;;;;;;;;;;25.00;68.30;;;;;;6280019;22;20010;-70
2023/01/12 03:59:54;;;;;;;;;;;25.00;68.50;;;;;;6279812;22;19910;-70
2023/01/12 04:02:21;;;;;;;;;;;25.00;67.30;;;;;;6307214;22;19903;-70
2023/01/12 04:04:48;;;;;;;;;;;25.00;67.90;;;;;;6306925;22;19903;-70
2023/01/12 04:07:14;;;;;;;;;;;25.00;68.70;;;;;;6307233;22;20233;-70
2023/01/12 04:09:41;;;;;;;;;;;25.00;68.10;;;;;;6306763;22;20280;-70
2023/01/12 04:12:12;;;;;;;;;;;25.10;68.80;;;;;;6306797;22;19903;-70
2023/01/12 04:14:42;;;;;;;;;;;25.00;68.70;;;;;;6280496;22;19914;-70
2023/01/12 04:17:10;;;;;;;;;;;25.00;68.10;;;;;;6306705;22;19937;-70
2023/01/12 04:19:37;;;;;;;;;;;25.00;68.60;;;;;;6307844;22;20336;-70
2023/01/12 04:24:48;;;;;;;;;;;25.00;68.20;;;;;;6307626;22;19972;-70
2023/01/12 04:27:15;;;;;;;;;;;25.00;68.40;;;;;;6306766;22;19903;-71
2023/01/12 04:29:42;;;;;;;;;;;25.00;68.10;;;;;;6307291;22;19903;-70
2023/01/12 04:32:08;;;;;;;;;;;25.00;67.40;;;;;;6306481;22;19903;-70
2023/01/12 04:34:35;;;;;;;;;;;25.10;68.20;;;;;;6306306;22;19981;-70
2023/01/12 04:37:02;;;;;;;;;;;25.00;68.00;;;;;;6306809;22;19922;-70
2023/01/12 04:39:32;;;;;;;;;;;25.00;67.60;;;;;;6305205;22;21307;-70
2023/01/12 04:41:59;;;;;;;;;;;25.00;67.60;;;;;;6306717;22;19913;-70
2023/01/12 04:44:26;;;;;;;;;;;25.00;68.50;;;;;;6306352;22;19956;-70
2023/01/12 04:46:52;;;;;;;;;;;25.10;68.80;;;;;;6306173;22;19914;-70
2023/01/12 04:49:19;;;;;;;;;;;25.00;68.40;;;;;;6306442;22;19907;-70
2023/01/12 04:51:46;;;;;;;;;;;25.00;66.90;;;;;;6306279;22;20234;-70
2023/01/12 04:54:12;;;;;;;;;;;25.00;68.00;;;;;;6306535;22;19974;-70
2023/01/12 04:56:39;;;;;;;;;;;25.00;68.60;;;;;;6306100;22;20360;-70
2023/01/12 04:59:08;;;;;;;;;;;25.00;68.60;;;;;;6306338;22;19919;-70
2023/01/12 05:01:37;;;;;;;;;;;25.00;67.80;;;;;;6306053;22;19906;-70
2023/01/12 05:04:04;;;;;;;;;;;25.00;68.40;;;;;;6306260;22;20284;-70
2023/01/12 05:06:31;;;;;;;;;;;25.00;68.60;;;;;;6306388;22;19902;-71
2023/01/12 05:11:42;;;;;;;;;;;25.00;68.00;;;;;;6306495;22;19910;-71
2023/01/12 05:14:08;;;;;;;;;;;25.00;68.20;;;;;;6305976;22;19919;-71
2023/01/12 05:16:35;;;;;;;;;;;25.00;67.50;;;;;;6306306;22;20314;-70
2023/01/12 05:19:02;;;;;;;;;;;24.90;66.80;;;;;;6306376;22;19948;-70
2023/01/12 05:21:29;;;;;;;;;;;24.90;66.40;;;;;;6306220;22;19941;-70
2023/01/12 05:23:56;;;;;;;;;;;24.90;67.20;;;;;;6306421;22;19902;-70
2023/01/12 05:26:22;;;;;;;;;;;24.90;68.30;;;;;;6306294;22;19903;-70
2023/01/12 05:28:49;;;;;;;;;;;24.90;68.30;;;;;;6306229;22;19982;-70
2023/01/12 05:31:16;;;;;;;;;;;24.80;67.50;;;;;;6305737;22;19903;-70
2023/01/12 05:33:43;;;;;;;;;;;24.80;67.50;;;;;;6306075;22;19911;-70
2023/01/12 05:36:11;;;;;;;;;;;24.80;68.30;;;;;;6306097;22;19907;-70
2023/01/12 05:38:37;;;;;;;;;;;24.80;68.50;;;;;;6306299;22;19903;-70
2023/01/12 05:41:06;;;;;;;;;;;24.90;68.70;;;;;;6306152;22;20253;-70
2023/01/12 05:43:50;;;;;;;;;;;24.80;67.60;;;;;;6306372;22;19935;-70
2023/01/12 05:46:21;;;;;;;;;;;24.80;68.00;;;;;;6308951;22;19929;-69
2023/01/12 05:48:48;;;;;;;;;;;24.80;68.80;;;;;;6308360;22;19903;-70
2023/01/12 05:51:15;;;;;;;;;;;24.80;68.20;;;;;;6308843;22;20304;-70
2023/01/12 05:53:42;;;;;;;;;;;24.70;68.00;;;;;;6308690;22;19934;-71
2023/01/12 05:56:15;;;;;;;;;;;24.70;68.50;;;;;;6308442;22;19909;-70
2023/01/12 05:58:42;;;;;;;;;;;24.60;68.40;;;;;;6308218;22;20276;-70
2023/01/12 06:01:09;;;;;;;;;;;24.70;68.60;;;;;;6308004;22;19911;-70
2023/01/12 06:03:36;;;;;;;;;;;24.70;67.60;;;;;;6308168;22;19978;-70
2023/01/12 06:06:03;;;;;;;;;;;24.70;67.70;;;;;;6308325;22;19914;-70
2023/01/12 06:08:29;;;;;;;;;;;24.70;67.50;;;;;;6309155;22;20276;-70
2023/01/12 06:10:59;;;;;;;;;;;24.60;67.20;;;;;;6308694;22;19914;-70
2023/01/12 06:16:10;;;;;;;;;;;24.60;66.80;;;;;;6308584;22;19913;-70
2023/01/12 06:18:37;;;;;;;;;;;24.50;65.80;;;;;;6307883;22;19907;-70
2023/01/12 06:21:05;;;;;;;;;;;24.50;66.30;;;;;;6308058;22;20364;-70
2023/01/12 06:23:31;;;;;;;;;;;24.50;65.90;;;;;;6307680;22;19903;-70
2023/01/12 06:26:04;;;;;;;;;;;24.50;65.80;;;;;;6308001;22;19903;-70
2023/01/12 06:28:31;;;;;;;;;;;24.50;66.10;;;;;;6308073;22;19903;-70
2023/01/12 06:31:01;;;;;;;;;;;24.50;65.50;;;;;;6308229;22;20260;-71
2023/01/12 06:33:27;;;;;;;;;;;24.40;66.60;;;;;;6308066;22;19903;-70
2023/01/12 06:35:54;;;;;;;;;;;24.40;67.10;;;;;;6280973;22;19907;-70
2023/01/12 06:38:22;;;;;;;;;;;24.40;66.80;;;;;;6308110;22;19907;-70
2023/01/12 06:40:48;;;;;;;;;;;24.30;67.10;;;;;;6307845;22;20241;-69
2023/01/12 06:43:15;;;;;;;;;;;24.30;66.30;;;;;;6307704;22;19910;-70
2023/01/12 06:45:42;;;;;;;;;;;24.30;66.40;;;;;;6307704;22;19955;-70
2023/01/12 06:48:08;;;;;;;;;;;24.30;66.90;;;;;;6307849;22;19906;-70
2023/01/12 06:50:35;;;;;;;;;;;24.30;66.30;;;;;;6308055;22;19929;-70
2023/01/12 06:53:02;;;;;;;;;;;24.30;66.60;;;;;;6307628;22;19983;-70
2023/01/12 06:55:29;;;;;;;;;;;24.30;66.70;;;;;;6280689;22;19911;-70
2023/01/12 06:57:56;;;;;;;;;;;24.30;66.60;;;;;;6307732;22;19915;-71
2023/01/12 07:00:22;;;;;;;;;;;24.20;64.40;;;;;;6307831;22;19911;-70
2023/01/12 07:02:49;;;;;;;;;;;24.20;65.50;;;;;;6307719;22;19948;-70
2023/01/12 07:05:16;;;;;;;;;;;24.10;66.10;;;;;;6307902;22;19907;-70
2023/01/12 07:07:43;;;;;;;;;;;24.00;67.00;;;;;;6307883;22;20207;-70
2023/01/12 07:10:12;;;;;;;;;;;24.10;66.90;;;;;;6307813;22;19907;-69
2023/01/12 07:12:39;;;;;;;;;;;24.00;67.70;;;;;;6307115;22;20025;-70
2023/01/12 07:15:06;;;;;;;;;;;24.00;68.00;;;;;;6307786;22;19903;-70
2023/01/12 07:17:33;;;;;;;;;;;24.00;68.50;;;;;;6307885;22;19903;-70
2023/01/12 07:19:59;;;;;;;;;;;23.90;68.20;;;;;;6307336;22;19915;-70
2023/01/12 07:22:26;;;;;;;;;;;23.90;68.60;;;;;;6307473;22;20332;-70
2023/01/12 07:24:53;;;;;;;;;;;23.90;69.10;;;;;;6308158;22;19911;-70
2023/01/12 07:27:19;;;;;;;;;;;23.90;69.20;;;;;;6308119;22;19907;-69
2023/01/12 07:29:46;;;;;;;;;;;23.90;69.20;;;;;;6307601;22;20233;-69
2023/01/12 07:32:13;;;;;;;;;;;23.80;69.10;;;;;;6307386;22;19968;-69
2023/01/12 07:34:39;;;;;;;;;;;23.80;69.30;;;;;;6307427;22;19906;-70
2023/01/12 07:37:06;;;;;;;;;;;23.80;69.20;;;;;;6306110;22;19903;-70
2023/01/12 07:39:33;;;;;;;;;;;23.80;69.50;;;;;;6307565;22;19911;-70
2023/01/12 07:44:44;;;;;;;;;;;23.80;69.40;;;;;;6306879;22;19910;-70
2023/01/12 07:47:11;;;;;;;;;;;23.80;69.70;;;;;;6304232;22;19910;-70
2023/01/12 07:49:37;;;;;;;;;;;23.80;69.90;;;;;;6304424;22;20246;-70
2023/01/12 07:52:04;;;;;;;;;;;23.70;70.40;;;;;;6306721;22;20221;-71
2023/01/12 07:54:32;;;;;;;;;;;23.70;70.30;;;;;;6304434;22;20465;-71
2023/01/12 07:56:59;;;;;;;;;;;23.60;70.10;;;;;;6305643;22;19964;-72
2023/01/12 07:59:26;;;;;;;;;;;23.60;70.80;;;;;;6307243;22;19950;-71
2023/01/12 08:01:55;;;;;;;;;;;23.50;70.70;;;;;;6306183;22;19993;-71
2023/01/12 08:04:22;;;;;;;;;;;23.50;70.90;;;;;;6306115;22;19907;-71
2023/01/12 08:06:49;;;;;;;;;;;23.50;70.90;;;;;;6306408;22;20280;-71
2023/01/12 08:09:15;;;;;;;;;;;23.50;70.60;;;;;;6307346;22;20324;-71
2023/01/12 08:11:42;;;;;;;;;;;23.50;70.50;;;;;;6307248;22;19903;-71
2023/01/12 08:14:09;;;;;;;;;;;23.50;71.00;;;;;;6307479;22;19907;-71
2023/01/12 08:16:37;;;;;;;;;;;23.40;70.90;;;;;;6279776;22;19917;-69
2023/01/12 08:19:14;;;;;;;;;;;23.40;70.90;;;;;;6280279;22;19930;-68
2023/01/12 08:21:44;;;;;;;;;;;23.30;71.00;;;;;;6307356;22;19907;-69
2023/01/12 08:24:15;;;;;;;;;;;23.30;71.50;;;;;;6279543;22;19903;-69
2023/01/12 08:26:42;;;;;;;;;;;23.30;71.70;;;;;;6307243;22;19931;-70
2023/01/12 08:29:12;;;;;;;;;;;23.30;71.50;;;;;;6307197;22;19906;-69
2023/01/12 15:28:16;;;;;;;;;;;21.70;79.40;;;;;;6183130;23;19979;-70
2023/01/12 15:30:42;;;;;;;;;;;21.70;79.60;;;;;;6237143;22;19903;-70
2023/01/12 15:33:09;;;;;;;;;;;21.70;79.80;;;;;;6276323;22;19961;-70
2023/01/12 15:35:36;;;;;;;;;;;21.70;79.80;;;;;;6276303;22;19986;-70
2023/01/12 15:38:02;;;;;;;;;;;21.70;80.00;;;;;;6249686;22;19903;-70
2023/01/12 15:40:29;;;;;;;;;;;21.70;79.90;;;;;;6276558;22;20314;-70
2023/01/12 15:42:58;;;;;;;;;;;21.70;80.10;;;;;;6276517;22;19910;-70
2023/01/12 15:45:28;;;;;;;;;;;21.70;80.10;;;;;;6249480;22;19903;-70
2023/01/12 15:47:55;;;;;;;;;;;21.70;80.10;;;;;;6277019;22;19910;-70
2023/01/12 15:50:22;;;;;;;;;;;21.70;80.20;;;;;;6276708;22;20373;-70
2023/01/12 15:52:49;;;;;;;;;;;21.60;80.20;;;;;;6275957;22;19914;-70
2023/01/12 15:55:17;;;;;;;;;;;21.70;80.30;;;;;;6276532;22;20317;-69
2023/01/12 15:57:44;;;;;;;;;;;21.60;80.40;;;;;;6276444;22;19926;-70
2023/01/12 16:00:14;;;;;;;;;;;21.60;80.50;;;;;;6276510;22;19911;-70
2023/01/12 16:02:41;;;;;;;;;;;21.60;80.50;;;;;;6276479;22;19999;-70
2023/01/12 16:05:08;;;;;;;;;;;21.60;80.50;;;;;;6276546;22;19904;-70
2023/01/12 16:07:35;;;;;;;;;;;21.60;80.60;;;;;;6276766;22;19907;-70
2023/01/12 16:10:02;;;;;;;;;;;21.50;80.50;;;;;;6276574;22;20227;-70
2023/01/12 16:12:29;;;;;;;;;;;21.50;80.50;;;;;;6276152;22;19934;-69
2023/01/12 16:14:57;;;;;;;;;;;21.50;80.50;;;;;;6276291;22;19943;-70
2023/01/12 16:17:24;;;;;;;;;;;21.50;80.50;;;;;;6286292;22;19968;-70
2023/01/12 16:19:51;;;;;;;;;;;21.40;80.50;;;;;;6307065;22;19910;-69
2023/01/12 16:22:21;;;;;;;;;;;21.40;80.60;;;;;;6307062;22;19907;-70
2023/01/12 16:24:48;;;;;;;;;;;21.40;80.60;;;;;;6307309;22;19910;-70
2023/01/12 16:27:15;;;;;;;;;;;21.40;80.70;;;;;;6307050;22;19956;-70
2023/01/12 16:29:42;;;;;;;;;;;21.40;80.80;;;;;;6307073;22;19990;-69
2023/01/12 16:32:08;;;;;;;;;;;21.40;80.90;;;;;;6306952;22;19945;-69
2023/01/12 16:34:35;;;;;;;;;;;21.40;81.00;;;;;;6307050;22;19933;-70
2023/01/12 16:37:02;;;;;;;;;;;21.40;80.90;;;;;;6306785;22;19903;-70
2023/01/12 16:39:28;;;;;;;;;;;21.40;81.10;;;;;;6306989;22;19914;-70
2023/01/12 16:42:04;;;;;;;;;;;21.30;81.10;;;;;;6307358;22;19907;-69
2023/01/12 16:44:37;;;;;;;;;;;21.30;81.30;;;;;;6307213;22;20311;-70
2023/01/12 16:47:04;;;;;;;;;;;21.20;81.50;;;;;;6307133;22;19903;-70
2023/01/12 16:49:33;;;;;;;;;;;21.20;81.50;;;;;;6307187;22;19903;-70
2023/01/12 16:52:00;;;;;;;;;;;21.20;81.60;;;;;;6279477;22;19907;-70
2023/01/12 16:54:27;;;;;;;;;;;21.20;81.60;;;;;;6306855;22;19944;-70
2023/01/12 16:56:54;;;;;;;;;;;21.20;81.60;;;;;;6306686;22;19903;-70
2023/01/12 16:59:21;;;;;;;;;;;21.20;81.60;;;;;;6306474;22;19910;-69
2023/01/12 17:01:50;;;;;;;;;;;21.10;81.60;;;;;;6306619;22;19907;-70
2023/01/12 17:04:18;;;;;;;;;;;21.10;81.60;;;;;;6306420;22;19903;-70
2023/01/12 17:06:45;;;;;;;;;;;21.10;81.70;;;;;;6306729;22;20330;-69
2023/01/12 17:09:13;;;;;;;;;;;21.10;81.70;;;;;;6307197;22;19985;-70
2023/01/12 17:11:40;;;;;;;;;;;21.10;81.80;;;;;;6306497;22;19911;-70
2023/01/12 17:14:32;;;;;;;;;;;21.10;81.90;;;;;;6306816;22;19909;-70
2023/01/12 17:16:55;;;;;;;;;;;21.10;82.00;;;;;;6305921;22;19938;-70
2023/01/12 17:19:22;;;;;;;;;;;21.10;82.20;;;;;;6306602;22;19907;-70
2023/01/12 17:21:48;;;;;;;;;;;21.10;82.40;;;;;;6306413;22;19939;-70
2023/01/12 17:24:17;;;;;;;;;;;21.00;82.60;;;;;;6306802;22;19933;-69
2023/01/12 17:26:44;;;;;;;;;;;21.00;82.80;;;;;;6306644;22;19910;-70
2023/01/12 17:29:10;;;;;;;;;;;21.00;82.90;;;;;;6306973;22;19907;-70
2023/01/12 17:31:38;;;;;;;;;;;21.00;83.10;;;;;;6279267;22;19942;-70
2023/01/12 17:34:05;;;;;;;;;;;21.00;83.30;;;;;;6306308;22;19910;-70
2023/01/12 17:36:32;;;;;;;;;;;21.00;83.60;;;;;;6307082;22;20040;-70
2023/01/12 17:38:59;;;;;;;;;;;21.00;83.80;;;;;;6306631;22;19915;-70
2023/01/12 17:44:10;;;;;;;;;;;21.10;84.10;;;;;;6306560;22;20325;-70
2023/01/12 17:46:37;;;;;;;;;;;21.10;84.00;;;;;;6306323;22;19980;-70
2023/01/12 17:49:04;;;;;;;;;;;21.10;84.00;;;;;;6306591;22;19957;-70
2023/01/12 17:51:31;;;;;;;;;;;21.20;84.00;;;;;;6306783;22;19903;-70
2023/01/12 17:53:58;;;;;;;;;;;21.20;83.80;;;;;;6306516;22;20043;-69
2023/01/12 17:56:26;;;;;;;;;;;21.20;83.90;;;;;;6306485;22;19910;-70
2023/01/12 17:58:52;;;;;;;;;;;21.20;83.80;;;;;;6306417;22;19903;-70
2023/01/12 18:01:19;;;;;;;;;;;21.20;83.90;;;;;;6306011;22;19950;-70
2023/01/12 18:03:46;;;;;;;;;;;21.30;83.90;;;;;;6306274;22;20237;-70
2023/01/12 18:06:13;;;;;;;;;;;21.20;83.90;;;;;;6306404;22;20300;-70
2023/01/12 18:08:39;;;;;;;;;;;21.20;84.10;;;;;;6306354;22;19903;-70
2023/01/12 18:11:07;;;;;;;;;;;21.30;84.20;;;;;;6306085;22;19902;-70
2023/01/12 18:13:37;;;;;;;;;;;21.30;84.60;;;;;;6306618;22;19903;-70
2023/01/12 18:16:03;;;;;;;;;;;21.30;84.70;;;;;;6306627;22;19918;-70
2023/01/12 18:18:30;;;;;;;;;;;21.30;84.90;;;;;;6306227;22;19922;-70
2023/01/12 18:21:02;;;;;;;;;;;21.20;84.70;;;;;;6306143;22;19918;-70
2023/01/12 18:23:29;;;;;;;;;;;21.20;84.80;;;;;;6306043;22;20231;-70
2023/01/12 18:25:56;;;;;;;;;;;21.20;85.00;;;;;;6306055;22;20326;-70
2023/01/12 18:28:23;;;;;;;;;;;21.20;85.00;;;;;;6306465;22;19910;-70
2023/01/12 18:30:49;;;;;;;;;;;21.20;85.00;;;;;;6306068;22;19907;-70
2023/01/12 18:33:16;;;;;;;;;;;21.20;85.00;;;;;;6305849;22;19907;-70
2023/01/12 18:35:43;;;;;;;;;;;21.30;84.90;;;;;;6306082;22;19938;-70
2023/01/12 18:38:09;;;;;;;;;;;21.30;84.80;;;;;;6278937;22;20246;-70
2023/01/12 18:40:36;;;;;;;;;;;21.30;84.80;;;;;;6306419;22;19918;-70
2023/01/12 18:43:02;;;;;;;;;;;21.30;84.80;;;;;;6306221;22;19903;-70
2023/01/12 18:45:29;;;;;;;;;;;21.30;84.80;;;;;;6306172;22;20339;-70
2023/01/12 18:53:31;;;;;;;;;;;21.30;84.70;;;;;;6308336;22;20345;-70
2023/01/12 18:55:57;;;;;;;;;;;21.30;84.70;;;;;;6306653;22;19981;-70
2023/01/12 18:58:27;;;;;;;;;;;21.30;84.80;;;;;;6308088;22;19948;-70
2023/01/12 19:01:11;;;;;;;;;;;21.30;84.80;;;;;;6307452;22;19922;-70
2023/01/12 19:03:38;;;;;;;;;;;21.30;84.80;;;;;;6307576;22;19934;-70
2023/01/12 19:11:27;;;;;;;;;;;21.30;84.50;;;;;;6235857;22;20238;-70
2023/01/12 19:19:26;;;;;;;;;;;21.30;84.30;;;;;;6306884;22;19918;-70
2023/01/12 19:30:07;;;;;;;;;;;21.40;83.90;;;;;;6283323;22;20298;-70
2023/01/12 19:32:34;;;;;;;;;;;21.40;83.80;;;;;;6305720;22;19931;-70
2023/01/12 19:35:01;;;;;;;;;;;21.50;83.80;;;;;;6306900;22;19974;-70
2023/01/12 19:37:27;;;;;;;;;;;21.50;83.80;;;;;;6307099;22;20230;-70
2023/01/12 19:40:10;;;;;;;;;;;21.40;83.90;;;;;;6306790;22;19911;-70
2023/01/12 19:45:21;;;;;;;;;;;21.50;84.10;;;;;;6307240;22;19910;-70
2023/01/12 19:47:47;;;;;;;;;;;21.50;84.10;;;;;;6307274;22;20245;-70
2023/01/12 19:50:14;;;;;;;;;;;21.40;84.00;;;;;;6307126;22;19902;-70
2023/01/12 19:52:41;;;;;;;;;;;21.40;84.10;;;;;;6306968;22;19923;-70
2023/01/12 19:55:09;;;;;;;;;;;21.40;84.20;;;;;;6307241;22;19903;-70
2023/01/12 19:57:35;;;;;;;;;;;21.40;84.50;;;;;;6308319;22;20260;-69
2023/01/12 20:00:03;;;;;;;;;;;21.40;84.60;;;;;;6307839;22;20000;-70
2023/01/12 20:02:30;;;;;;;;;;;21.40;84.60;;;;;;6306694;22;19976;-70
2023/01/12 20:04:57;;;;;;;;;;;21.40;84.90;;;;;;6307286;22;19903;-70
2023/01/12 20:07:24;;;;;;;;;;;21.40;84.70;;;;;;6307497;22;19907;-70
2023/01/12 20:09:51;;;;;;;;;;;21.40;84.80;;;;;;6307458;22;19903;-70
2023/01/12 20:12:17;;;;;;;;;;;21.40;84.80;;;;;;6307123;22;20358;-70
2023/01/12 20:14:44;;;;;;;;;;;21.50;84.90;;;;;;6307152;22;19903;-70
2023/01/12 20:17:11;;;;;;;;;;;21.50;84.90;;;;;;6307306;22;19915;-70
2023/01/12 20:19:38;;;;;;;;;;;21.50;85.00;;;;;;6307657;22;19907;-70
2023/01/12 20:22:04;;;;;;;;;;;21.50;84.70;;;;;;6307088;22;19991;-69
2023/01/12 20:24:31;;;;;;;;;;;21.40;84.20;;;;;;6307917;22;19922;-69
2023/01/12 20:26:57;;;;;;;;;;;21.50;84.10;;;;;;6306908;22;19986;-70
